Time;durP1;ratioP1;P1;durP2;ratioP2;P2;SDS_P1;SDS_P2;PMS_P1;PMS_P2;Temp;Humidity;BMP_temperature;BMP_pressure;BME280_temperature;BME280_humidity;BME280_pressure;Samples;Min_cycle;Max_cycle;Signal;HPM_P1;HPM_P2
2021/05/10 00:00:08;;;;;;;1.53;1.43;;;;;;;12.12;85.99;94726.75;5018513;28;20235;-65
2021/05/10 00:02:39;;;;;;;1.23;1.20;;;;;;;12.00;85.57;94732.97;5014448;28;20693;-66
2021/05/10 00:05:08;;;;;;;1.73;1.23;;;;;;;11.84;85.40;94736.94;5019161;28;20219;-66
2021/05/10 00:07:35;;;;;;;1.27;1.17;;;;;;;11.50;87.20;94728.34;5022300;28;20371;-65
2021/05/10 00:10:02;;;;;;;1.40;1.30;;;;;;;11.50;86.77;94724.91;5020653;28;20215;-66
2021/05/10 00:12:29;;;;;;;1.87;1.77;;;;;;;11.44;87.19;94723.94;5017954;28;20774;-65
2021/05/10 00:14:57;;;;;;;1.67;1.57;;;;;;;11.31;87.68;94731.91;5015875;28;20431;-66
2021/05/10 00:17:24;;;;;;;1.97;1.77;;;;;;;11.19;88.05;94723.06;5017294;28;20284;-66
2021/05/10 00:19:51;;;;;;;2.00;1.90;;;;;;;11.10;88.32;94728.56;5019403;28;20280;-66
2021/05/10 00:22:18;;;;;;;1.87;1.50;;;;;;;11.06;88.60;94724.75;5018143;28;20309;-66
2021/05/10 00:24:46;;;;;;;1.00;1.00;;;;;;;11.06;89.07;94722.09;5021871;28;20227;-66
2021/05/10 00:27:13;;;;;;;1.50;1.40;;;;;;;11.19;89.63;94720.41;5021382;28;20321;-66
2021/05/10 00:29:39;;;;;;;1.33;1.23;;;;;;;11.26;89.00;94716.72;5025640;28;20265;-66
2021/05/10 00:32:07;;;;;;;1.63;1.53;;;;;;;11.30;88.61;94711.81;5017533;28;20297;-66
2021/05/10 00:34:34;;;;;;;2.13;1.37;;;;;;;11.34;88.35;94707.75;5017938;28;20231;-66
2021/05/10 00:37:01;;;;;;;1.87;1.63;;;;;;;11.36;88.07;94711.78;5015079;28;20685;-66
2021/05/10 00:39:28;;;;;;;2.37;2.20;;;;;;;11.50;87.95;94712.50;5027479;28;20223;-65
2021/05/10 00:41:56;;;;;;;1.97;1.87;;;;;;;11.61;86.77;94714.50;5022380;28;20687;-68
2021/05/10 00:44:23;;;;;;;3.53;1.63;;;;;;;11.63;86.49;94717.72;5010931;28;20723;-69
2021/05/10 00:46:52;;;;;;;1.57;1.47;;;;;;;11.59;85.68;94716.53;5015503;28;20269;-68
2021/05/10 00:49:19;;;;;;;1.20;1.20;;;;;;;11.51;85.78;94716.78;5017487;28;20436;-68
2021/05/10 00:51:46;;;;;;;1.10;1.00;;;;;;;11.28;86.62;94711.22;5018743;28;20285;-68
2021/05/10 00:54:12;;;;;;;4.20;1.20;;;;;;;11.06;87.08;94710.69;5024630;28;20243;-68
2021/05/10 00:56:41;;;;;;;1.80;1.70;;;;;;;10.95;87.38;94709.53;5019142;28;20218;-68
2021/05/10 00:59:08;;;;;;;1.60;1.50;;;;;;;10.80;87.87;94716.91;5019757;28;20290;-68
2021/05/10 01:01:34;;;;;;;2.07;1.97;;;;;;;10.51;89.17;94713.75;5018972;28;20309;-67
2021/05/10 01:04:02;;;;;;;1.53;1.30;;;;;;;10.52;89.07;94707.47;5014558;28;20637;-68
2021/05/10 01:06:28;;;;;;;4.67;1.63;;;;;;;10.46;89.24;94704.81;5013969;28;20254;-68
2021/05/10 01:08:55;;;;;;;1.83;1.73;;;;;;;10.42;89.11;94701.78;5023362;28;20230;-67
2021/05/10 01:11:22;;;;;;;1.53;1.47;;;;;;;10.41;89.64;94702.78;5021894;28;20218;-67
2021/05/10 01:13:50;;;;;;;2.00;1.90;;;;;;;10.38;90.46;94707.69;5016175;28;20734;-67
2021/05/10 01:16:17;;;;;;;1.40;1.30;;;;;;;10.38;90.40;94713.75;5022913;28;20257;-67
2021/05/10 01:18:45;;;;;;;2.10;2.00;;;;;;;10.40;90.83;94705.63;5022501;28;20223;-68
2021/05/10 01:21:12;;;;;;;2.13;1.43;;;;;;;10.45;91.10;94704.00;5020312;28;20288;-68
2021/05/10 01:23:41;;;;;;;2.10;1.90;;;;;;;10.48;91.41;94703.59;5012724;28;20703;-68
2021/05/10 01:26:09;;;;;;;2.30;1.80;;;;;;;10.57;91.06;94695.47;5018384;28;20253;-68
2021/05/10 01:28:35;;;;;;;3.13;1.70;;;;;;;10.61;90.76;94696.69;5012761;28;20241;-67
2021/05/10 01:31:02;;;;;;;6.77;2.50;;;;;;;10.63;90.46;94695.44;5009264;28;20231;-68
2021/05/10 01:33:29;;;;;;;2.37;2.17;;;;;;;10.67;90.51;94703.75;5012942;28;20734;-67
2021/05/10 01:35:56;;;;;;;1.67;1.57;;;;;;;10.64;89.84;94699.69;5015627;28;20222;-66
2021/05/10 01:38:24;;;;;;;1.43;1.33;;;;;;;10.69;89.90;94699.06;5020529;28;20229;-67
2021/05/10 01:40:51;;;;;;;1.47;1.37;;;;;;;10.69;90.23;94693.78;5023460;28;20309;-68
2021/05/10 01:43:19;;;;;;;1.67;1.57;;;;;;;10.69;90.20;94683.22;5022736;28;20708;-67
2021/05/10 01:45:48;;;;;;;1.37;1.37;;;;;;;10.71;90.61;94699.69;5012642;28;20677;-68
2021/05/10 01:48:15;;;;;;;1.70;1.60;;;;;;;10.69;90.12;94699.06;5006408;28;20314;-67
2021/05/10 01:50:46;;;;;;;2.30;2.20;;;;;;;10.66;89.90;94705.56;5007763;28;20786;-67
2021/05/10 01:53:14;;;;;;;2.73;2.53;;;;;;;10.65;90.46;94695.22;5029309;28;20311;-68
2021/05/10 01:55:42;;;;;;;1.53;1.43;;;;;;;10.60;90.35;94697.66;5023779;28;20352;-68
2021/05/10 01:58:10;;;;;;;1.30;1.23;;;;;;;10.56;89.71;94696.47;5023032;28;20281;-68
2021/05/10 02:00:39;;;;;;;2.10;1.93;;;;;;;10.50;89.76;94690.19;5010746;28;20290;-67
2021/05/10 02:03:07;;;;;;;1.30;1.20;;;;;;;10.48;89.76;94681.69;5012546;28;20236;-68
2021/05/10 02:05:35;;;;;;;1.20;1.10;;;;;;;10.47;89.69;94696.69;5006500;28;20339;-67
2021/05/10 02:08:04;;;;;;;1.83;1.73;;;;;;;10.49;89.48;94701.75;5014322;28;20327;-67
2021/05/10 02:10:33;;;;;;;2.80;2.60;;;;;;;10.50;89.69;94692.81;5016421;28;20285;-67
2021/05/10 02:13:02;;;;;;;1.20;1.10;;;;;;;10.54;89.49;94697.50;5011699;28;20233;-68
2021/05/10 02:15:31;;;;;;;5.50;2.13;;;;;;;10.62;89.07;94695.66;5022283;28;20381;-67
2021/05/10 02:17:58;;;;;;;1.50;1.40;;;;;;;10.65;89.02;94692.59;5015915;28;20703;-67
2021/05/10 02:20:27;;;;;;;1.73;1.63;;;;;;;10.65;88.84;94682.84;5014486;28;20247;-68
2021/05/10 02:22:56;;;;;;;1.33;1.23;;;;;;;10.64;88.66;94686.50;5023032;28;20265;-68
2021/05/10 02:25:24;;;;;;;1.27;1.20;;;;;;;10.64;88.45;94680.44;5023847;28;20618;-67
2021/05/10 02:27:53;;;;;;;1.37;1.27;;;;;;;10.64;88.38;94680.44;5020639;28;20234;-67
2021/05/10 02:30:22;;;;;;;1.07;1.07;;;;;;;10.66;88.03;94678.38;5020586;28;20298;-68
2021/05/10 02:32:51;;;;;;;1.33;1.23;;;;;;;10.65;88.29;94682.84;5008144;28;20647;-68
2021/05/10 02:35:19;;;;;;;1.40;1.07;;;;;;;10.54;88.93;94671.13;5016394;28;20241;-68
2021/05/10 02:37:46;;;;;;;2.00;1.90;;;;;;;10.61;89.35;94672.94;5014533;28;20216;-68
2021/05/10 02:40:15;;;;;;;1.50;1.40;;;;;;;10.50;89.45;94664.63;5013861;28;20643;-67
2021/05/10 02:42:42;;;;;;;1.60;1.50;;;;;;;10.47;89.12;94662.41;5017553;28;20306;-67
2021/05/10 02:45:11;;;;;;;1.27;1.23;;;;;;;10.40;89.05;94653.69;5022243;28;20577;-68
2021/05/10 02:47:39;;;;;;;1.80;1.70;;;;;;;10.36;89.09;94649.88;5009402;28;20386;-67
2021/05/10 02:50:10;;;;;;;1.47;1.37;;;;;;;10.30;89.47;94647.25;5008902;28;20217;-67
2021/05/10 02:52:38;;;;;;;1.83;1.67;;;;;;;10.22;89.51;94645.63;5023147;28;20223;-67
2021/05/10 02:55:06;;;;;;;0.87;0.87;;;;;;;10.21;90.11;94652.69;5017286;28;20841;-67
2021/05/10 02:57:34;;;;;;;1.90;1.77;;;;;;;10.14;89.86;94661.63;5016115;28;20322;-68
2021/05/10 03:00:00;;;;;;;0.70;0.70;;;;;;;10.08;90.37;94676.47;5018535;28;20598;-67
2021/05/10 03:02:27;;;;;;;1.67;1.57;;;;;;;10.05;90.04;94668.13;5015708;28;20226;-68
2021/05/10 03:04:55;;;;;;;2.47;1.90;;;;;;;10.01;90.68;94675.66;5012662;28;20223;-67
2021/05/10 03:07:22;;;;;;;1.27;1.27;;;;;;;10.00;90.67;94679.31;5019745;28;20230;-68
2021/05/10 03:09:49;;;;;;;1.47;1.40;;;;;;;9.95;91.00;94687.00;5011384;28;20304;-67
2021/05/10 03:12:16;;;;;;;1.90;1.53;;;;;;;9.88;90.94;94692.28;5014576;28;20257;-67
2021/05/10 03:14:43;;;;;;;1.43;1.33;;;;;;;9.86;90.98;94688.22;5014816;28;20636;-67
2021/05/10 03:17:10;;;;;;;1.30;1.20;;;;;;;9.81;91.58;94688.84;5014069;28;20255;-68
2021/05/10 03:19:36;;;;;;;1.70;1.60;;;;;;;9.83;92.11;94684.16;5017447;28;20322;-68
2021/05/10 03:22:03;;;;;;;1.63;1.20;;;;;;;9.87;91.95;94685.38;5014162;28;20609;-67
2021/05/10 03:24:31;;;;;;;1.37;0.90;;;;;;;9.89;91.33;94675.47;5021145;28;20250;-67
2021/05/10 03:27:00;;;;;;;1.13;1.03;;;;;;;9.90;91.50;94669.19;5013662;28;20229;-65
2021/05/10 03:29:27;;;;;;;1.80;1.70;;;;;;;9.92;90.86;94677.69;5037126;28;20223;-63
2021/05/10 03:31:54;;;;;;;1.03;1.00;;;;;;;9.94;90.49;94686.19;5009475;28;20239;-63
2021/05/10 03:34:21;;;;;;;1.73;1.63;;;;;;;9.75;91.43;94687.00;5018731;28;20708;-64
2021/05/10 03:36:48;;;;;;;1.17;1.07;;;;;;;9.77;91.36;94687.59;5008661;28;20223;-63
2021/05/10 03:39:14;;;;;;;2.00;1.90;;;;;;;9.78;91.10;94689.22;5015478;28;20249;-64
2021/05/10 03:41:42;;;;;;;2.13;0.93;;;;;;;9.78;90.76;94686.59;5014993;28;20305;-64
2021/05/10 03:44:09;;;;;;;1.77;1.67;;;;;;;9.75;91.13;94684.38;5019802;28;20258;-63
2021/05/10 03:46:36;;;;;;;1.20;1.20;;;;;;;9.75;91.36;94687.00;5008090;28;20656;-63
2021/05/10 03:49:03;;;;;;;1.07;1.07;;;;;;;9.73;91.28;94681.13;5020621;28;20307;-63
2021/05/10 03:51:30;;;;;;;2.50;1.93;;;;;;;9.75;91.46;94680.94;5018741;28;20310;-63
2021/05/10 03:53:57;;;;;;;1.40;1.30;;;;;;;9.72;91.63;94671.63;5022334;28;20313;-63
2021/05/10 03:56:24;;;;;;;1.40;1.30;;;;;;;9.73;91.84;94672.41;5020976;28;20227;-64
2021/05/10 03:58:52;;;;;;;6.60;2.40;;;;;;;9.76;91.59;94679.91;5006839;28;20225;-63
2021/05/10 04:01:18;;;;;;;1.20;1.20;;;;;;;9.80;90.90;94687.22;5019965;28;20317;-63
2021/05/10 04:03:47;;;;;;;1.27;1.20;;;;;;;9.79;90.77;94688.25;5017832;28;20239;-64
2021/05/10 04:14:40;;;;;;;1.50;1.40;;;;;;;9.92;91.32;94685.59;5009384;28;20684;-64
2021/05/10 04:17:07;;;;;;;1.47;1.37;;;;;;;9.90;91.51;94685.00;5018281;28;20226;-64
2021/05/10 04:19:34;;;;;;;0.70;0.70;;;;;;;9.92;91.69;94693.50;5019295;28;20224;-62
2021/05/10 04:22:01;;;;;;;1.77;1.67;;;;;;;9.90;90.88;94690.25;5018433;28;20276;-64
2021/05/10 04:24:27;;;;;;;2.20;1.40;;;;;;;9.86;91.12;94714.56;5014145;28;20732;-63
2021/05/10 04:26:54;;;;;;;1.53;1.43;;;;;;;9.79;90.88;94719.84;5020750;28;20222;-63
2021/05/10 04:29:21;;;;;;;1.60;1.50;;;;;;;9.74;91.22;94719.63;5015156;28;20229;-63
2021/05/10 04:31:49;;;;;;;1.57;1.00;;;;;;;9.74;91.29;94724.09;5009435;28;20589;-64
2021/05/10 04:34:16;;;;;;;1.77;1.10;;;;;;;9.77;91.37;94721.84;5019562;28;20346;-64
2021/05/10 04:36:42;;;;;;;2.37;1.97;;;;;;;9.77;92.11;94716.59;5014541;28;20314;-63
2021/05/10 04:39:09;;;;;;;3.03;2.20;;;;;;;9.87;92.18;94727.53;5016986;28;20252;-64
2021/05/10 04:41:36;;;;;;;1.77;1.67;;;;;;;9.93;91.60;94732.00;5018606;28;20707;-63
2021/05/10 04:44:04;;;;;;;3.37;2.00;;;;;;;10.03;91.78;94733.44;5013037;28;20309;-63
2021/05/10 04:46:30;;;;;;;1.30;1.07;;;;;;;10.11;91.13;94730.59;5007592;28;20220;-66
2021/05/10 04:48:58;;;;;;;1.40;1.30;;;;;;;10.19;90.83;94733.03;5016870;28;20226;-65
2021/05/10 04:51:25;;;;;;;2.17;1.13;;;;;;;10.30;90.57;94737.69;5020367;28;20777;-65
2021/05/10 04:53:52;;;;;;;1.57;1.47;;;;;;;10.44;90.29;94744.59;5015920;28;20288;-65
2021/05/10 04:56:19;;;;;;;1.73;1.60;;;;;;;10.57;89.74;94740.31;5004265;28;20246;-66
2021/05/10 04:58:46;;;;;;;1.40;1.33;;;;;;;10.76;90.40;94755.28;5008355;28;20674;-65
2021/05/10 05:01:13;;;;;;;1.50;1.40;;;;;;;10.92;89.92;94757.47;5021709;28;20227;-66
2021/05/10 05:03:39;;;;;;;2.13;2.00;;;;;;;11.08;89.61;94759.66;5021072;28;20404;-66
2021/05/10 05:06:07;;;;;;;1.50;1.37;;;;;;;11.33;89.50;94759.75;5024161;28;20308;-66
2021/05/10 05:08:34;;;;;;;1.93;1.80;;;;;;;11.53;88.46;94754.38;5024953;28;20317;-63
2021/05/10 05:11:01;;;;;;;4.03;1.90;;;;;;;11.75;87.31;94761.97;5023461;28;20238;-65
2021/05/10 05:13:30;;;;;;;3.23;1.40;;;;;;;11.95;86.20;94770.59;5020807;28;20284;-66
2021/05/10 05:15:57;;;;;;;2.97;2.37;;;;;;;12.15;84.41;94767.81;5020856;28;20287;-66
2021/05/10 05:18:24;;;;;;;2.33;2.20;;;;;;;12.30;82.61;94759.56;5011494;28;20227;-64
2021/05/10 05:20:51;;;;;;;2.27;2.07;;;;;;;12.45;81.08;94766.16;5015171;28;20307;-66
2021/05/10 05:23:20;;;;;;;1.77;1.27;;;;;;;12.63;79.86;94759.28;5022338;28;20330;-66
2021/05/10 05:25:47;;;;;;;1.73;1.60;;;;;;;12.80;79.53;94761.16;5023129;28;20223;-66
2021/05/10 05:28:14;;;;;;;9.63;3.10;;;;;;;12.98;78.93;94768.25;5025286;28;20228;-66
2021/05/10 05:30:41;;;;;;;2.47;1.97;;;;;;;13.18;79.13;94759.31;5023675;28;20681;-66
2021/05/10 05:33:07;;;;;;;1.97;1.87;;;;;;;13.30;80.00;94760.22;5007655;28;20335;-65
2021/05/10 05:35:34;;;;;;;3.43;2.10;;;;;;;13.41;79.06;94761.28;5017764;28;20310;-66
2021/05/10 05:38:01;;;;;;;1.43;1.33;;;;;;;13.48;80.64;94752.22;5027592;28;20434;-66
2021/05/10 05:40:29;;;;;;;7.67;2.80;;;;;;;13.52;83.33;94753.38;5026264;28;20277;-65
2021/05/10 05:42:56;;;;;;;2.43;2.23;;;;;;;13.59;83.06;94761.25;5026317;28;20293;-66
2021/05/10 05:45:24;;;;;;;2.13;1.33;;;;;;;13.74;83.07;94761.69;5024787;28;20231;-65
2021/05/10 05:47:51;;;;;;;1.33;1.30;;;;;;;13.94;82.71;94756.91;5021626;28;20243;-65
2021/05/10 05:50:18;;;;;;;2.37;1.80;;;;;;;14.18;82.05;94752.47;5024995;28;20704;-66
2021/05/10 05:52:45;;;;;;;1.10;1.00;;;;;;;14.45;81.37;94762.69;5024028;28;20247;-65
2021/05/10 05:55:13;;;;;;;3.90;1.97;;;;;;;14.69;80.91;94763.50;5025823;28;20315;-66
2021/05/10 05:57:44;;;;;;;1.93;1.57;;;;;;;14.89;79.74;94755.97;5015924;28;20286;-66
2021/05/10 06:00:12;;;;;;;2.17;1.37;;;;;;;15.08;77.60;94759.28;5006323;28;20768;-67
2021/05/10 06:02:41;;;;;;;3.43;3.07;;;;;;;15.25;75.58;94762.03;5020088;28;20231;-66
2021/05/10 06:05:09;;;;;;;1.33;1.23;;;;;;;15.37;75.63;94757.53;5020659;28;20224;-66
2021/05/10 06:07:43;;;;;;;3.40;2.07;;;;;;;15.60;76.52;94765.44;5005643;28;20224;-64
2021/05/10 06:10:12;;;;;;;3.10;1.30;;;;;;;15.84;75.50;94768.03;5006184;28;20235;-64
2021/05/10 06:12:41;;;;;;;1.17;0.80;;;;;;;16.10;71.04;94767.44;5016794;28;20326;-64
2021/05/10 06:15:10;;;;;;;2.13;0.33;;;;;;;16.35;65.44;94760.91;5014007;28;20314;-64
2021/05/10 06:17:37;;;;;;;2.03;1.90;;;;;;;16.64;66.03;94761.63;5025958;28;20243;-64
2021/05/10 06:20:04;;;;;;;1.73;1.10;;;;;;;16.94;65.25;94763.97;5012285;28;20243;-64
2021/05/10 06:22:31;;;;;;;8.13;1.20;;;;;;;17.25;64.15;94766.00;5019483;28;20216;-64
2021/05/10 06:25:00;;;;;;;0.90;0.90;;;;;;;17.47;61.23;94758.00;5021106;28;20227;-65
2021/05/10 06:27:27;;;;;;;4.37;1.47;;;;;;;17.70;61.44;94767.63;5024023;28;20504;-64
2021/05/10 06:29:55;;;;;;;2.20;1.57;;;;;;;17.90;62.06;94772.38;5020205;28;20597;-64
2021/05/10 06:32:22;;;;;;;3.80;1.00;;;;;;;18.04;61.78;94778.16;5019569;28;20338;-64
2021/05/10 06:34:50;;;;;;;1.30;1.23;;;;;;;18.13;61.28;94772.09;5024663;28;20246;-64
2021/05/10 06:37:19;;;;;;;1.57;1.20;;;;;;;18.17;60.51;94794.56;5052624;28;20223;-64
2021/05/10 06:39:46;;;;;;;2.20;1.07;;;;;;;18.12;61.58;94802.53;5020864;28;20587;-64
2021/05/10 06:42:13;;;;;;;4.07;0.90;;;;;;;18.15;62.06;94809.22;5024991;28;20327;-64
2021/05/10 06:44:40;;;;;;;2.00;1.33;;;;;;;18.05;68.73;94811.78;5024801;28;20223;-65
2021/05/10 06:47:07;;;;;;;5.70;2.57;;;;;;;17.82;70.56;94807.53;5024205;28;20219;-65
2021/05/10 06:49:34;;;;;;;1.97;1.77;;;;;;;17.74;71.42;94806.13;5025387;28;20325;-65
2021/05/10 06:52:01;;;;;;;2.93;1.30;;;;;;;17.64;71.88;94805.94;5021832;28;20228;-65
2021/05/10 06:54:28;;;;;;;0.90;0.90;;;;;;;17.58;72.09;94812.28;5024358;28;20251;-64
2021/05/10 06:56:55;;;;;;;1.63;1.50;;;;;;;17.70;72.11;94806.84;5021550;28;20211;-64
2021/05/10 06:59:22;;;;;;;2.50;1.30;;;;;;;17.85;70.19;94807.03;5016832;28;20251;-64
2021/05/10 07:01:49;;;;;;;5.77;1.80;;;;;;;18.06;68.79;94814.22;5021397;28;20247;-65
2021/05/10 07:04:16;;;;;;;4.20;1.20;;;;;;;18.20;67.73;94817.31;5020716;28;20251;-64
2021/05/10 07:06:43;;;;;;;2.37;2.03;;;;;;;18.39;67.71;94805.19;5023293;28;20539;-65
2021/05/10 07:09:11;;;;;;;1.40;1.23;;;;;;;18.62;67.60;94796.03;5018770;28;20307;-65
2021/05/10 07:11:38;;;;;;;2.93;0.93;;;;;;;18.84;67.73;94798.66;5022293;28;20956;-64
2021/05/10 07:14:05;;;;;;;1.90;1.80;;;;;;;19.06;68.42;94789.69;5014905;28;20784;-65
2021/05/10 07:16:33;;;;;;;1.97;1.10;;;;;;;19.21;67.69;94782.59;5022381;28;20246;-65
2021/05/10 07:19:00;;;;;;;3.13;1.03;;;;;;;19.43;66.97;94774.41;5021710;28;20220;-65
2021/05/10 07:21:28;;;;;;;2.57;1.10;;;;;;;19.59;66.01;94776.09;5012553;28;20266;-63
2021/05/10 07:23:56;;;;;;;1.10;1.10;;;;;;;19.80;64.93;94785.00;5019297;28;20258;-63
2021/05/10 07:26:22;;;;;;;0.93;0.83;;;;;;;20.02;62.78;94774.09;5015812;28;20278;-65
2021/05/10 07:28:49;;;;;;;1.43;1.33;;;;;;;20.26;62.38;94765.56;5024454;28;20713;-64
2021/05/10 07:31:16;;;;;;;0.93;0.93;;;;;;;20.52;61.09;94772.59;5018641;28;20756;-65
2021/05/10 07:33:43;;;;;;;4.00;0.90;;;;;;;20.78;58.50;94764.56;5024051;28;20234;-65
2021/05/10 07:36:10;;;;;;;2.20;1.40;;;;;;;20.97;57.19;94765.59;5006946;28;20232;-65
2021/05/10 07:38:37;;;;;;;7.57;2.30;;;;;;;21.10;58.06;94770.41;5014445;28;20664;-65
2021/05/10 07:41:05;;;;;;;3.83;2.00;;;;;;;21.33;58.96;94763.69;5022291;28;20258;-65
2021/05/10 07:43:32;;;;;;;5.77;1.83;;;;;;;21.54;58.28;94773.28;5019274;28;20235;-65
2021/05/10 07:45:59;;;;;;;3.30;1.27;;;;;;;21.78;56.77;94775.34;5018583;28;20289;-64
2021/05/10 07:48:25;;;;;;;1.50;1.40;;;;;;;22.04;57.86;94778.72;5019985;28;20319;-65
2021/05/10 07:50:53;;;;;;;2.10;1.10;;;;;;;22.38;57.74;94771.50;5014392;28;20244;-66
2021/05/10 07:53:20;;;;;;;3.93;1.23;;;;;;;22.69;56.88;94764.03;5022948;28;20242;-65
2021/05/10 07:55:48;;;;;;;1.70;1.43;;;;;;;23.03;56.60;94770.50;5020689;28;20267;-64
2021/05/10 07:58:20;;;;;;;1.60;1.33;;;;;;;23.23;55.95;94767.63;5016285;28;20223;-65
2021/05/10 08:00:49;;;;;;;4.10;1.60;;;;;;;23.55;55.57;94773.19;5022546;28;20220;-66
2021/05/10 08:03:17;;;;;;;2.83;1.97;;;;;;;23.76;52.85;94765.69;5024611;28;20236;-65
2021/05/10 08:05:44;;;;;;;1.17;1.07;;;;;;;23.78;52.44;94765.41;5020938;28;20251;-65
2021/05/10 08:08:13;;;;;;;0.70;0.70;;;;;;;23.77;51.97;94763.78;5025344;28;20721;-66
2021/05/10 08:10:40;;;;;;;1.95;0.93;;;;;;;23.84;50.56;94767.75;5023052;28;20306;-65
2021/05/10 08:13:07;;;;;;;4.15;1.10;;;;;;;24.04;51.01;94772.06;5023666;28;20317;-64
2021/05/10 08:15:35;;;;;;;2.60;0.75;;;;;;;24.15;51.79;94766.56;5024582;28;20752;-65
2021/05/10 08:18:02;;;;;;;2.17;0.65;;;;;;;24.24;50.72;94767.50;5020515;28;20227;-66
2021/05/10 08:20:38;;;;;;;0.63;0.63;;;;;;;24.31;51.50;94754.44;5022181;28;20305;-64
2021/05/10 08:23:05;;;;;;;5.07;2.17;;;;;;;24.38;51.61;94754.91;5010732;28;20234;-66
2021/05/10 08:25:32;;;;;;;2.13;1.45;;;;;;;24.63;50.45;94748.34;5020093;28;20250;-65
2021/05/10 08:27:58;;;;;;;4.03;1.40;;;;;;;24.93;49.27;94750.50;5023953;28;20640;-66
2021/05/10 08:30:25;;;;;;;3.58;1.77;;;;;;;25.24;45.90;94745.44;5021928;28;20231;-66
2021/05/10 08:32:57;;;;;;;1.20;0.90;;;;;;;25.43;45.82;94769.66;5024369;28;20249;-65
2021/05/10 08:35:24;;;;;;;1.20;1.08;;;;;;;25.58;46.08;94765.84;5025860;28;20305;-66
2021/05/10 08:37:58;;;;;;;4.30;1.65;;;;;;;25.92;45.14;94764.66;5026573;28;20292;-65
2021/05/10 08:40:25;;;;;;;2.28;0.30;;;;;;;26.20;40.61;94755.41;5024823;28;20223;-65
2021/05/10 08:42:52;;;;;;;4.68;1.17;;;;;;;26.36;38.75;94745.84;5026513;28;20335;-66
2021/05/10 08:45:20;;;;;;;0.80;0.38;;;;;;;26.74;39.35;94742.81;5027416;28;20231;-66
2021/05/10 08:47:48;;;;;;;0.75;0.60;;;;;;;27.03;37.40;94736.16;5023066;28;20215;-66
2021/05/10 08:50:16;;;;;;;3.13;0.60;;;;;;;27.20;37.90;94731.66;5024559;28;20341;-66
2021/05/10 08:52:44;;;;;;;0.40;0.40;;;;;;;27.49;38.75;94731.13;5020955;28;20860;-65
2021/05/10 08:55:14;;;;;;;3.05;2.05;;;;;;;27.72;38.56;94728.38;5025426;28;20340;-65
2021/05/10 08:57:41;;;;;;;1.95;0.70;;;;;;;27.60;36.38;94730.84;5015855;28;20227;-66
2021/05/10 09:00:12;;;;;;;1.08;1.08;;;;;;;27.38;36.80;94724.41;5023447;28;20232;-66
2021/05/10 09:02:39;;;;;;;4.22;0.60;;;;;;;27.33;35.97;94727.22;5025412;28;20273;-65
2021/05/10 09:05:11;;;;;;;1.23;0.95;;;;;;;27.30;37.62;94733.28;5022004;28;20361;-66
2021/05/10 09:07:39;;;;;;;0.85;0.85;;;;;;;27.37;38.15;94728.22;5027258;28;20594;-66
2021/05/10 09:10:10;;;;;;;1.60;1.05;;;;;;;27.69;38.67;94718.16;5027325;28;20285;-66
2021/05/10 09:12:44;;;;;;;6.50;0.75;;;;;;;28.02;37.98;94718.56;5018978;28;20954;-65
2021/05/10 09:15:22;;;;;;;1.13;1.02;;;;;;;28.30;38.15;94719.09;5016309;28;20642;-66
2021/05/10 09:17:53;;;;;;;2.05;1.08;;;;;;;28.55;37.47;94717.50;5023048;28;20250;-66
2021/05/10 09:20:22;;;;;;;2.22;0.50;;;;;;;28.83;38.72;94723.38;5023116;28;20545;-65
2021/05/10 09:22:52;;;;;;;0.98;0.98;;;;;;;29.27;38.05;94719.47;5027383;28;20556;-66
2021/05/10 09:25:20;;;;;;;0.88;0.88;;;;;;;29.57;39.02;94731.22;5026809;28;20226;-66
2021/05/10 09:27:48;;;;;;;0.70;0.70;;;;;;;29.62;35.39;94733.72;5026633;28;20223;-67
2021/05/10 09:30:20;;;;;;;3.85;1.13;;;;;;;29.65;35.49;94743.16;5014809;28;20248;-66
2021/05/10 09:32:50;;;;;;;2.15;0.70;;;;;;;29.93;32.89;94735.34;5015274;28;20230;-66
2021/05/10 09:35:20;;;;;;;1.23;1.08;;;;;;;30.32;37.10;94733.38;5018313;28;20689;-67
2021/05/10 09:38:09;;;;;;;1.33;1.23;;;;;;;30.82;37.90;94725.94;5027442;28;20314;-66
2021/05/10 09:40:48;;;;;;;2.80;1.15;;;;;;;30.98;37.51;94728.00;5012559;28;20232;-66
2021/05/10 09:43:17;;;;;;;4.65;0.93;;;;;;;31.28;37.42;94721.31;5007616;28;20278;-66
2021/05/10 09:45:46;;;;;;;4.28;1.38;;;;;;;31.12;34.71;94728.53;5024296;28;20247;-67
2021/05/10 09:48:16;;;;;;;1.30;0.85;;;;;;;31.25;33.13;94721.97;5018976;28;20256;-66
2021/05/10 09:50:45;;;;;;;0.65;0.65;;;;;;;31.43;34.82;94720.66;5025674;28;20224;-67
2021/05/10 09:53:16;;;;;;;1.23;1.05;;;;;;;31.60;32.76;94721.56;5023175;28;20238;-66
2021/05/10 09:55:47;;;;;;;1.38;0.90;;;;;;;31.95;33.45;94711.81;5025033;28;20282;-66
2021/05/10 09:58:17;;;;;;;1.75;1.23;;;;;;;32.29;33.08;94706.22;5025431;28;20353;-66
2021/05/10 10:00:45;;;;;;;3.65;1.45;;;;;;;32.25;30.78;94714.28;5027073;28;20219;-66
2021/05/10 10:03:30;;;;;;;1.33;1.10;;;;;;;31.77;32.08;94705.03;5021694;28;20654;-67
2021/05/10 10:05:59;;;;;;;2.78;2.10;;;;;;;31.48;30.72;94702.50;5015071;28;20227;-66
2021/05/10 10:08:27;;;;;;;1.05;1.05;;;;;;;31.63;31.26;94701.78;5021782;28;20518;-66
2021/05/10 10:10:56;;;;;;;1.15;1.05;;;;;;;31.64;30.07;94703.41;5019708;28;20281;-67
2021/05/10 10:13:23;;;;;;;1.25;0.90;;;;;;;31.83;31.17;94692.75;5025172;28;20247;-66
2021/05/10 10:15:50;;;;;;;2.97;1.98;;;;;;;31.82;29.99;94703.97;5026784;28;20247;-67
2021/05/10 10:18:20;;;;;;;4.78;0.93;;;;;;;31.62;30.53;94714.63;5024521;28;20547;-66
2021/05/10 10:20:48;;;;;;;2.63;1.00;;;;;;;31.13;30.54;94730.91;5023697;28;20739;-64
2021/05/10 10:23:18;;;;;;;1.38;0.82;;;;;;;30.97;30.91;94737.31;5024236;28;20228;-66
2021/05/10 10:25:46;;;;;;;1.35;0.90;;;;;;;31.41;32.33;94744.75;5025141;28;20322;-66
2021/05/10 10:28:19;;;;;;;2.50;0.65;;;;;;;31.97;31.91;94741.50;5025247;28;20231;-66
2021/05/10 10:31:07;;;;;;;1.27;1.13;;;;;;;31.77;31.79;94748.66;5026219;28;20282;-66
2021/05/10 10:33:41;;;;;;;6.97;0.65;;;;;;;31.71;31.38;94752.72;5004504;28;20876;-69
2021/05/10 10:36:16;;;;;;;0.73;0.73;;;;;;;31.33;30.28;94745.63;5015481;28;20787;-68
2021/05/10 10:38:43;;;;;;;0.55;0.55;;;;;;;31.31;30.98;94737.00;5019539;28;20731;-67
2021/05/10 10:41:26;;;;;;;1.15;0.43;;;;;;;30.96;30.17;94752.06;5023929;28;20590;-66
2021/05/10 10:43:53;;;;;;;1.63;0.70;;;;;;;30.94;32.05;94754.34;5018002;28;20258;-66
2021/05/10 10:46:25;;;;;;;3.92;1.52;;;;;;;30.25;30.95;94761.09;5026151;28;20287;-65
2021/05/10 10:48:55;;;;;;;0.60;0.60;;;;;;;30.91;30.93;94749.56;5024958;28;20223;-66
2021/05/10 10:51:25;;;;;;;0.82;0.73;;;;;;;31.33;30.19;94745.63;5023202;28;20219;-66
2021/05/10 10:53:55;;;;;;;1.38;0.98;;;;;;;31.61;29.91;94739.53;5022334;28;20685;-67
2021/05/10 10:56:53;;;;;;;1.30;1.20;;;;;;;31.76;31.90;94741.63;5021639;28;20223;-66
2021/05/10 10:59:25;;;;;;;0.65;0.40;;;;;;;31.42;31.94;94738.16;5024487;28;20233;-66
2021/05/10 11:01:52;;;;;;;0.93;0.93;;;;;;;31.08;32.37;94717.47;5024554;28;20227;-66
2021/05/10 11:04:26;;;;;;;1.95;0.85;;;;;;;29.72;32.28;94717.06;5025806;28;20278;-66
2021/05/10 11:06:54;;;;;;;4.32;1.73;;;;;;;29.79;34.05;94710.28;5023908;28;20271;-66
2021/05/10 11:09:48;;;;;;;2.47;0.85;;;;;;;29.20;33.29;94715.66;5021984;28;20285;-65
2021/05/10 11:12:47;;;;;;;2.92;1.45;;;;;;;29.51;32.72;94721.63;5013614;28;20224;-65
2021/05/10 11:15:44;;;;;;;1.35;1.17;;;;;;;29.48;33.03;94733.13;5005826;28;20235;-66
2021/05/10 11:18:11;;;;;;;1.30;0.73;;;;;;;29.63;34.42;94732.63;5015514;28;20254;-66
2021/05/10 11:20:39;;;;;;;3.13;1.48;;;;;;;29.88;35.43;94724.66;5021583;28;20224;-68
2021/05/10 11:23:29;;;;;;;1.75;1.65;;;;;;;29.81;31.36;94719.75;5023024;28;20614;-66
2021/05/10 11:25:56;;;;;;;1.05;0.77;;;;;;;30.10;31.81;94727.13;5017481;28;20290;-66
2021/05/10 11:28:51;;;;;;;1.27;1.15;;;;;;;30.23;33.48;94717.88;5017914;28;20235;-64
2021/05/10 11:31:32;;;;;;;1.70;1.15;;;;;;;30.43;31.94;94712.78;5021552;28;20258;-66
2021/05/10 11:34:23;;;;;;;3.50;0.80;;;;;;;30.41;32.30;94710.38;4989949;28;20717;-66
2021/05/10 11:36:52;;;;;;;0.77;0.77;;;;;;;30.14;33.25;94705.47;5020839;28;20302;-65
2021/05/10 11:39:25;;;;;;;0.88;0.80;;;;;;;30.24;35.43;94705.88;5022401;28;20771;-66
2021/05/10 11:41:58;;;;;;;1.10;0.70;;;;;;;30.28;32.58;94706.03;5020952;28;20224;-66
2021/05/10 11:44:27;;;;;;;0.98;0.85;;;;;;;30.69;31.51;94704.41;5021378;28;20474;-67
2021/05/10 11:46:55;;;;;;;1.67;1.20;;;;;;;30.54;32.72;94709.34;5018491;28;20228;-66
2021/05/10 11:49:29;;;;;;;2.65;1.42;;;;;;;30.41;31.59;94710.38;5023858;28;20308;-67